createdAt,value
2023-08-14T00:00:18.374Z,99.99
2023-08-14T00:01:18.324Z,99.99
2023-08-14T00:02:18.613Z,99.99
2023-08-14T00:03:18.330Z,99.99
2023-08-14T00:04:18.302Z,99.99
2023-08-14T00:05:18.311Z,99.99
2023-08-14T00:06:18.297Z,99.99
2023-08-14T00:07:18.304Z,99.99
2023-08-14T00:08:18.283Z,99.99
2023-08-14T00:09:18.222Z,99.99
2023-08-14T00:10:18.236Z,99.99
2023-08-14T00:11:18.215Z,99.99
2023-08-14T00:12:18.449Z,99.99
2023-08-14T00:13:18.217Z,99.99
2023-08-14T00:14:18.184Z,99.99
2023-08-14T00:15:18.143Z,99.99
2023-08-14T00:16:18.189Z,99.99
2023-08-14T00:17:18.143Z,99.99
2023-08-14T00:18:18.142Z,99.99
2023-08-14T00:19:18.204Z,99.99
2023-08-14T00:20:18.111Z,99.99
2023-08-14T00:21:18.128Z,99.99
2023-08-14T00:22:18.418Z,99.99
2023-08-14T00:23:18.072Z,99.99
2023-08-14T00:24:18.061Z,99.99
2023-08-14T00:25:18.070Z,99.99
2023-08-14T00:26:18.079Z,99.99
2023-08-14T00:27:18.026Z,99.99
2023-08-14T00:28:18.070Z,99.99
2023-08-14T00:29:18.007Z,99.99
2023-08-14T00:30:18.035Z,99.99
2023-08-14T00:31:18.391Z,99.99
2023-08-14T00:32:18.256Z,99.99
2023-08-14T00:33:17.954Z,99.99
2023-08-14T00:34:17.979Z,99.99
2023-08-14T00:35:17.942Z,99.99
2023-08-14T00:36:18.236Z,99.99
2023-08-14T00:37:17.950Z,99.99
2023-08-14T00:38:17.967Z,99.99
2023-08-14T00:39:17.902Z,99.99
2023-08-14T00:40:17.926Z,99.99
2023-08-14T00:41:17.914Z,99.99
2023-08-14T00:42:18.204Z,99.99
2023-08-14T00:43:18.567Z,99.99
2023-08-14T00:44:17.860Z,99.99
2023-08-14T00:45:18.730Z,99.99
2023-08-14T00:46:17.890Z,99.99
2023-08-14T00:47:17.843Z,99.99
2023-08-14T00:48:17.838Z,99.99
2023-08-14T00:49:17.846Z,99.99
2023-08-14T00:50:17.784Z,99.99
2023-08-14T00:51:17.780Z,99.99
2023-08-14T00:52:18.095Z,99.99
2023-08-14T00:53:17.773Z,99.99
2023-08-14T00:54:17.752Z,99.99
2023-08-14T00:55:17.807Z,99.99
2023-08-14T00:56:17.730Z,99.99
2023-08-14T00:57:17.733Z,99.99
2023-08-14T00:58:17.709Z,99.99
2023-08-14T00:59:17.719Z,99.99
2023-08-14T01:00:17.690Z,99.99
2023-08-14T01:01:17.787Z,99.99
2023-08-14T01:02:17.850Z,99.99
2023-08-14T01:03:17.759Z,99.99
2023-08-14T01:04:17.661Z,99.99
2023-08-14T01:05:17.617Z,99.99
2023-08-14T01:06:17.650Z,99.99
2023-08-14T01:07:17.641Z,99.99
2023-08-14T01:08:17.612Z,99.99
2023-08-14T01:09:17.600Z,99.99
2023-08-14T01:10:17.584Z,99.99
2023-08-14T01:11:17.619Z,99.99
2023-08-14T01:12:17.927Z,99.99
2023-08-14T01:13:17.561Z,99.99
2023-08-14T01:14:17.548Z,99.99
2023-08-14T01:15:17.526Z,99.99
2023-08-14T01:16:17.630Z,99.99
2023-08-14T01:17:17.525Z,99.99
2023-08-14T01:18:17.505Z,99.99
2023-08-14T01:19:17.522Z,99.99
2023-08-14T01:20:17.493Z,99.99
2023-08-14T01:21:17.497Z,99.99
2023-08-14T01:22:17.837Z,99.99
2023-08-14T01:23:17.466Z,99.99
2023-08-14T01:24:17.426Z,99.99
2023-08-14T01:25:17.424Z,99.99
2023-08-14T01:26:17.400Z,99.99
2023-08-14T01:27:17.412Z,99.99
2023-08-14T01:28:17.381Z,99.99
2023-08-14T01:29:17.392Z,99.99
2023-08-14T01:30:17.425Z,99.99
2023-08-14T01:31:17.361Z,99.99
2023-08-14T01:32:17.565Z,99.99
2023-08-14T01:33:17.321Z,99.99
2023-08-14T01:34:17.353Z,99.99
2023-08-14T01:35:17.300Z,99.99
2023-08-14T01:36:17.309Z,99.99
2023-08-14T01:37:17.327Z,99.99
2023-08-14T01:38:17.317Z,99.99
2023-08-14T01:39:17.271Z,99.99
2023-08-14T01:40:17.317Z,99.99
2023-08-14T01:41:17.265Z,99.99
2023-08-14T01:42:17.602Z,99.99
2023-08-14T01:43:17.219Z,99.99
2023-08-14T01:44:17.251Z,99.99
2023-08-14T01:45:17.216Z,99.99
2023-08-14T01:46:17.233Z,99.99
2023-08-14T01:47:17.199Z,99.99
2023-08-14T01:48:17.196Z,99.99
2023-08-14T01:49:17.833Z,99.99
2023-08-14T01:50:17.169Z,99.99
2023-08-14T01:51:17.142Z,99.99
2023-08-14T01:52:17.380Z,99.99
2023-08-14T01:53:17.136Z,99.99
2023-08-14T01:54:17.168Z,99.99
2023-08-14T01:55:17.110Z,99.99
2023-08-14T01:56:17.086Z,99.99
2023-08-14T01:57:17.077Z,99.99
2023-08-14T01:58:17.055Z,99.99
2023-08-14T01:59:17.067Z,99.99
2023-08-14T02:00:17.054Z,99.99
2023-08-14T02:01:17.077Z,99.99
2023-08-14T02:02:17.350Z,99.99
2023-08-14T02:03:17.127Z,99.99
2023-08-14T02:04:17.042Z,99.99
2023-08-14T02:05:16.992Z,99.99
2023-08-14T02:06:17.014Z,99.99
2023-08-14T02:07:17.022Z,99.99
2023-08-14T02:08:16.977Z,99.99
2023-08-14T02:09:16.966Z,99.99
2023-08-14T02:10:16.971Z,99.99
2023-08-14T02:11:16.960Z,99.99
2023-08-14T02:12:17.196Z,99.99
2023-08-14T02:13:16.911Z,99.99
2023-08-14T02:14:16.905Z,99.99
2023-08-14T02:15:16.898Z,99.99
2023-08-14T02:16:16.921Z,99.99
2023-08-14T02:17:16.853Z,99.99
2023-08-14T02:18:16.855Z,99.99
2023-08-14T02:19:16.892Z,99.99
2023-08-14T02:20:16.846Z,99.99
2023-08-14T02:21:16.827Z,99.99
2023-08-14T02:22:17.057Z,99.99
2023-08-14T02:23:16.841Z,99.99
2023-08-14T02:24:16.831Z,99.99
2023-08-14T02:25:16.824Z,99.99
2023-08-14T02:26:16.787Z,99.99
2023-08-14T02:27:16.760Z,99.99
2023-08-14T02:28:16.752Z,99.99
2023-08-14T02:29:16.778Z,99.99
2023-08-14T02:30:16.739Z,99.99
2023-08-14T02:31:16.758Z,99.99
2023-08-14T02:32:17.047Z,99.99
2023-08-14T02:33:16.709Z,99.99
2023-08-14T02:34:16.687Z,99.99
2023-08-14T02:35:16.682Z,99.99
2023-08-14T02:36:16.684Z,99.99
2023-08-14T02:37:16.672Z,99.99
2023-08-14T02:38:16.632Z,99.99
2023-08-14T02:39:16.699Z,99.99
2023-08-14T02:40:16.653Z,99.99
2023-08-14T02:41:16.628Z,99.99
2023-08-14T02:42:16.910Z,99.99
2023-08-14T02:43:16.570Z,99.99
2023-08-14T02:44:16.609Z,99.99
2023-08-14T02:45:16.575Z,99.99
2023-08-14T02:46:16.622Z,99.99
2023-08-14T02:47:16.579Z,99.99
2023-08-14T02:48:16.545Z,99.99
2023-08-14T02:49:16.530Z,99.99
2023-08-14T02:50:16.538Z,99.99
2023-08-14T02:51:16.529Z,99.99
2023-08-14T02:52:16.765Z,99.99
2023-08-14T02:53:16.489Z,99.99
2023-08-14T02:54:16.510Z,99.99
2023-08-14T02:55:16.467Z,99.99
2023-08-14T02:56:16.444Z,99.99
2023-08-14T02:57:16.476Z,99.99
2023-08-14T02:58:16.429Z,99.99
2023-08-14T02:59:16.414Z,99.99
2023-08-14T03:00:16.446Z,99.99
2023-08-14T03:01:16.391Z,99.99
2023-08-14T03:02:16.763Z,99.99
2023-08-14T03:03:16.578Z,99.99
2023-08-14T03:04:16.354Z,99.99
2023-08-14T03:05:16.360Z,99.99
2023-08-14T03:06:16.367Z,99.99
2023-08-14T03:07:16.388Z,99.99
2023-08-14T03:08:16.355Z,99.99
2023-08-14T03:09:16.305Z,99.99
2023-08-14T03:10:16.295Z,99.99
2023-08-14T03:11:16.294Z,99.99
2023-08-14T03:12:16.489Z,99.99
2023-08-14T03:13:16.316Z,99.99
2023-08-14T03:14:16.268Z,99.99
2023-08-14T03:15:16.239Z,99.99
2023-08-14T03:16:16.284Z,99.99
2023-08-14T03:17:16.233Z,99.99
2023-08-14T03:18:16.239Z,99.99
2023-08-14T03:19:16.210Z,99.99
2023-08-14T03:20:16.257Z,99.99
2023-08-14T03:21:16.190Z,99.99
2023-08-14T03:22:16.551Z,99.99
2023-08-14T03:23:16.157Z,99.99
2023-08-14T03:24:16.151Z,99.99
2023-08-14T03:25:16.154Z,99.99
2023-08-14T03:26:16.144Z,99.99
2023-08-14T03:27:16.149Z,99.99
2023-08-14T03:28:16.167Z,99.99
2023-08-14T03:29:16.090Z,99.99
2023-08-14T03:30:16.039Z,99.99
2023-08-14T03:31:16.179Z,99.99
2023-08-14T03:32:16.457Z,99.99
2023-08-14T03:33:16.100Z,99.99
2023-08-14T03:34:16.016Z,99.99
2023-08-14T03:35:15.983Z,99.99
2023-08-14T03:36:15.969Z,99.99
2023-08-14T03:37:16.080Z,99.99
2023-08-14T03:38:15.949Z,99.99
2023-08-14T03:39:15.990Z,99.99
2023-08-14T03:40:16.011Z,99.99
2023-08-14T03:41:15.936Z,99.99
2023-08-14T03:42:16.337Z,99.99
2023-08-14T03:43:15.918Z,99.99
2023-08-14T03:44:15.947Z,99.99
2023-08-14T03:45:15.888Z,99.99
2023-08-14T03:46:15.911Z,99.99
2023-08-14T03:47:15.927Z,99.99
2023-08-14T03:48:15.828Z,99.99
2023-08-14T03:49:15.833Z,99.99
2023-08-14T03:50:15.875Z,99.99
2023-08-14T03:51:15.820Z,99.99
2023-08-14T03:52:16.122Z,99.99
2023-08-14T03:53:15.780Z,99.99
2023-08-14T03:54:15.788Z,99.99
2023-08-14T03:55:15.765Z,99.99
2023-08-14T03:56:15.768Z,99.99
2023-08-14T03:57:15.761Z,99.99
2023-08-14T03:58:15.735Z,99.99
2023-08-14T03:59:15.739Z,99.99
2023-08-14T04:00:15.725Z,99.99
2023-08-14T04:01:15.701Z,99.99
2023-08-14T04:02:15.700Z,99.99
2023-08-14T04:03:15.797Z,99.99
2023-08-14T04:04:15.677Z,99.99
2023-08-14T04:05:15.681Z,99.99
2023-08-14T04:06:15.686Z,99.99
2023-08-14T04:07:15.650Z,99.99
2023-08-14T04:08:15.679Z,99.99
2023-08-14T04:09:15.658Z,99.99
2023-08-14T04:10:15.617Z,99.99
2023-08-14T04:11:15.608Z,99.99
2023-08-14T04:12:15.846Z,99.99
2023-08-14T04:13:15.594Z,99.99
2023-08-14T04:14:15.562Z,99.99
2023-08-14T04:15:15.586Z,99.99
2023-08-14T04:16:15.606Z,99.99
2023-08-14T04:17:15.527Z,99.99
2023-08-14T04:18:15.580Z,99.99
2023-08-14T04:19:15.548Z,99.99
2023-08-14T04:20:15.548Z,99.99
2023-08-14T04:21:15.495Z,99.99
2023-08-14T04:22:15.472Z,99.99
2023-08-14T04:23:15.506Z,99.99
2023-08-14T04:24:15.473Z,99.99
2023-08-14T04:25:15.440Z,99.99
2023-08-14T04:26:15.439Z,99.99
2023-08-14T04:27:15.427Z,99.99
2023-08-14T04:28:15.446Z,99.99
2023-08-14T04:29:15.439Z,99.99
2023-08-14T04:30:15.395Z,99.99
2023-08-14T04:31:15.378Z,99.99
2023-08-14T04:32:15.422Z,99.99
2023-08-14T04:33:15.377Z,99.99
2023-08-14T04:34:15.364Z,99.99
2023-08-14T04:35:15.355Z,99.99
2023-08-14T04:36:15.368Z,99.99
2023-08-14T04:37:15.332Z,99.99
2023-08-14T04:38:15.340Z,99.99
2023-08-14T04:39:15.294Z,99.99
2023-08-14T04:40:15.304Z,99.99
2023-08-14T04:41:15.303Z,99.99
2023-08-14T04:42:15.266Z,99.99
2023-08-14T04:43:15.256Z,99.99
2023-08-14T04:44:15.250Z,99.99
2023-08-14T04:45:15.259Z,99.99
2023-08-14T04:46:15.274Z,99.99
2023-08-14T04:47:15.214Z,99.99
2023-08-14T04:48:15.274Z,99.99
2023-08-14T04:49:15.248Z,99.99
2023-08-14T04:50:15.238Z,99.99
2023-08-14T04:51:15.197Z,99.99
2023-08-14T04:52:15.169Z,99.99
2023-08-14T04:53:15.216Z,99.99
2023-08-14T04:54:15.163Z,99.99
2023-08-14T04:55:15.163Z,99.99
2023-08-14T04:56:15.120Z,99.99
2023-08-14T04:57:15.689Z,99.99
2023-08-14T04:58:15.138Z,99.99
2023-08-14T04:59:15.108Z,99.99
2023-08-14T05:00:15.142Z,99.99
2023-08-14T05:01:15.194Z,99.99
2023-08-14T05:02:15.278Z,99.99
2023-08-14T05:03:15.037Z,99.99
2023-08-14T05:04:15.089Z,99.99
2023-08-14T05:05:15.045Z,99.99
2023-08-14T05:06:15.021Z,99.99
2023-08-14T05:07:15.054Z,99.99
2023-08-14T05:08:14.992Z,99.99
2023-08-14T05:09:25.640Z,99.99
2023-08-14T05:10:14.990Z,99.99
2023-08-14T05:11:15.501Z,99.99
2023-08-14T05:12:15.463Z,99.99
2023-08-14T05:13:15.124Z,99.99
2023-08-14T05:14:15.031Z,99.99
2023-08-14T05:15:15.022Z,99.99
2023-08-14T05:16:15.047Z,99.99
2023-08-14T05:17:14.982Z,99.99
2023-08-14T05:18:14.969Z,99.99
2023-08-14T05:19:15.037Z,99.99
2023-08-14T05:20:14.990Z,99.99
2023-08-14T05:21:15.044Z,99.99
2023-08-14T05:22:14.980Z,99.99
2023-08-14T05:23:14.873Z,99.99
2023-08-14T05:24:14.857Z,99.99
2023-08-14T05:25:14.876Z,99.99
2023-08-14T05:26:14.876Z,99.99
2023-08-14T05:27:14.885Z,99.99
2023-08-14T05:28:14.869Z,99.99
2023-08-14T05:29:14.878Z,99.99
2023-08-14T05:30:14.920Z,99.99
2023-08-14T05:31:14.848Z,99.99
2023-08-14T05:32:14.846Z,99.99
2023-08-14T05:33:14.803Z,99.99
2023-08-14T05:34:14.797Z,99.99
2023-08-14T05:35:14.838Z,99.99
2023-08-14T05:36:14.744Z,99.99
2023-08-14T05:37:14.739Z,99.99
2023-08-14T05:38:14.739Z,99.99
2023-08-14T05:39:14.718Z,99.99
2023-08-14T05:40:14.771Z,99.99
2023-08-14T05:41:14.707Z,99.99
2023-08-14T05:42:14.770Z,99.99
2023-08-14T05:43:14.762Z,99.99
2023-08-14T05:44:14.713Z,99.99
2023-08-14T05:45:14.698Z,99.99
2023-08-14T05:46:14.756Z,99.99
2023-08-14T05:47:14.918Z,99.99
2023-08-14T05:48:16.286Z,99.99
2023-08-14T05:49:17.417Z,99.99
2023-08-14T05:50:19.512Z,99.99
2023-08-14T05:53:56.157Z,99.99
2023-08-14T05:55:00.047Z,99.99
2023-08-14T05:55:56.668Z,99.99
2023-08-14T05:56:56.512Z,99.99
2023-08-14T05:57:56.469Z,99.99
2023-08-14T05:58:56.649Z,99.99
2023-08-14T05:59:56.638Z,99.99
2023-08-14T06:00:56.522Z,99.99
2023-08-14T06:01:58.587Z,99.99
2023-08-14T06:02:56.598Z,99.99
2023-08-14T06:03:56.625Z,99.99
2023-08-14T06:04:56.402Z,99.99
2023-08-14T06:05:56.559Z,99.99
2023-08-14T06:06:56.542Z,99.99
2023-08-14T06:07:56.579Z,99.99
2023-08-14T06:08:58.314Z,99.99
2023-08-14T06:09:56.569Z,99.99
2023-08-14T06:10:56.473Z,99.99
2023-08-14T06:11:56.429Z,99.99
2023-08-14T06:12:56.362Z,99.99
2023-08-14T06:13:56.418Z,99.99
2023-08-14T06:14:56.370Z,99.99
2023-08-14T06:15:56.301Z,99.99
2023-08-14T06:16:56.622Z,99.99
2023-08-14T06:17:56.568Z,99.99
2023-08-14T06:18:56.409Z,99.99
2023-08-14T06:19:56.320Z,99.99
2023-08-14T06:20:56.466Z,99.99
2023-08-14T06:21:56.425Z,99.99
2023-08-14T06:22:56.404Z,99.99
2023-08-14T06:23:56.294Z,99.99
2023-08-14T06:24:56.227Z,99.99
2023-08-14T06:25:56.298Z,99.99
2023-08-14T06:26:56.631Z,99.99
2023-08-14T06:27:56.297Z,99.99
2023-08-14T06:28:56.428Z,99.99
2023-08-14T06:29:56.180Z,99.99
2023-08-14T06:30:56.244Z,99.99
2023-08-14T06:31:56.284Z,99.99
2023-08-14T06:32:56.192Z,99.99
2023-08-14T06:33:56.374Z,99.99
2023-08-14T06:34:56.196Z,99.99
2023-08-14T06:35:56.166Z,99.99
2023-08-14T06:36:56.154Z,99.99
2023-08-14T06:37:56.127Z,99.99
2023-08-14T06:38:57.349Z,99.99
2023-08-14T06:39:56.130Z,99.99
2023-08-14T06:40:56.088Z,99.99
2023-08-14T06:41:56.096Z,99.99
2023-08-14T06:42:56.007Z,99.99
2023-08-14T06:43:56.325Z,99.99
2023-08-14T06:44:56.287Z,99.99
2023-08-14T06:45:56.141Z,99.99
2023-08-14T06:46:56.105Z,99.99
2023-08-14T06:47:55.985Z,99.99
2023-08-14T06:48:55.944Z,99.99
2023-08-14T06:49:56.292Z,99.99
2023-08-14T06:50:56.012Z,99.99
2023-08-14T06:51:55.938Z,99.99
2023-08-14T06:52:56.033Z,99.99
2023-08-14T06:53:56.224Z,99.99
2023-08-14T06:54:55.879Z,99.99
2023-08-14T06:55:55.910Z,99.99
2023-08-14T06:56:55.827Z,99.99
2023-08-14T06:57:55.952Z,99.99
2023-08-14T06:58:55.966Z,99.99
2023-08-14T06:59:55.883Z,99.99
2023-08-14T07:00:55.900Z,99.99
2023-08-14T07:01:55.952Z,99.99
2023-08-14T07:02:55.909Z,99.99
2023-08-14T07:03:55.805Z,99.99
2023-08-14T07:04:55.754Z,99.99
2023-08-14T07:05:55.810Z,99.99
2023-08-14T07:06:55.710Z,99.99
2023-08-14T07:07:55.774Z,99.99
2023-08-14T07:08:55.712Z,99.99
2023-08-14T07:09:55.818Z,99.99
2023-08-14T07:10:55.772Z,99.99
2023-08-14T07:11:55.743Z,99.99
2023-08-14T07:12:55.839Z,99.65
2023-08-14T07:13:55.814Z,99.65
2023-08-14T07:14:55.660Z,98.94
2023-08-14T07:15:55.775Z,98.94
2023-08-14T07:16:55.706Z,98.85
2023-08-14T07:17:55.812Z,98.04
2023-08-14T07:18:55.687Z,98.04
2023-08-14T07:19:55.877Z,98.44
2023-08-14T07:20:56.930Z,98.65
2023-08-14T07:21:55.601Z,98.54
2023-08-14T07:22:55.554Z,96.93
2023-08-14T07:23:55.552Z,97.13
2023-08-14T07:24:55.592Z,97.03
2023-08-14T07:25:55.550Z,97.64
2023-08-14T07:26:55.529Z,97.84
2023-08-14T07:27:55.607Z,97.94
2023-08-14T07:28:55.660Z,98.50
2023-08-14T07:29:55.636Z,99.30
2023-08-14T07:30:55.604Z,99.51
2023-08-14T07:31:55.611Z,99.10
2023-08-14T07:32:56.140Z,99.10
2023-08-14T07:33:55.607Z,98.50
2023-08-14T07:34:55.501Z,97.89
2023-08-14T07:35:55.457Z,98.60
2023-08-14T07:36:55.429Z,99.40
2023-08-14T07:37:56.296Z,99.99
2023-08-14T07:38:55.730Z,99.99
2023-08-14T07:39:56.073Z,99.99
2023-08-14T07:40:56.387Z,99.99
2023-08-14T07:41:55.903Z,99.99
2023-08-14T07:42:55.513Z,99.99
2023-08-14T07:43:55.421Z,99.99
2023-08-14T07:44:55.465Z,99.99
2023-08-14T07:45:55.425Z,99.99
2023-08-14T07:46:55.378Z,99.99
2023-08-14T07:47:55.429Z,99.99
2023-08-14T07:48:55.362Z,99.99
2023-08-14T07:49:55.312Z,99.99
2023-08-14T07:50:55.308Z,99.99
2023-08-14T07:51:55.323Z,99.99
2023-08-14T07:52:55.277Z,99.66
2023-08-14T07:53:55.287Z,99.55
2023-08-14T07:54:55.316Z,99.05
2023-08-14T07:55:55.237Z,98.65
2023-08-14T07:56:55.246Z,98.15
2023-08-14T07:57:55.385Z,97.80
2023-08-14T07:58:55.440Z,98.30
2023-08-14T07:59:55.403Z,98.71
2023-08-14T08:00:55.358Z,98.86
2023-08-14T08:01:55.290Z,98.66
2023-08-14T08:02:55.245Z,98.46
2023-08-14T08:03:55.240Z,98.16
2023-08-14T08:04:55.200Z,98.11
2023-08-14T08:05:55.220Z,97.81
2023-08-14T08:06:55.212Z,97.91
2023-08-14T08:07:55.201Z,97.41
2023-08-14T08:08:55.530Z,96.41
2023-08-14T08:09:55.166Z,95.60
2023-08-14T08:10:55.496Z,95.55
2023-08-14T08:11:56.386Z,95.95
2023-08-14T08:12:55.116Z,96.15
2023-08-14T08:13:57.890Z,96.36
2023-08-14T08:14:55.070Z,96.15
2023-08-14T08:15:55.103Z,94.75
2023-08-14T08:16:55.043Z,94.95
2023-08-14T08:17:55.127Z,94.45
2023-08-14T08:18:55.007Z,94.55
2023-08-14T08:19:56.422Z,94.60
2023-08-14T08:20:55.624Z,95.10
2023-08-14T08:21:56.023Z,94.26
2023-08-14T08:22:55.390Z,93.05
2023-08-14T08:23:54.985Z,92.31
2023-08-14T08:24:55.393Z,91.11
2023-08-14T08:25:55.231Z,91.91
2023-08-14T08:26:55.170Z,92.11
2023-08-14T08:27:55.035Z,92.21
2023-08-14T08:28:55.134Z,90.86
2023-08-14T08:29:55.234Z,90.42
2023-08-14T08:30:55.030Z,89.78
2023-08-14T08:31:55.217Z,89.23
2023-08-14T08:33:03.277Z,88.49
2023-08-14T08:33:54.887Z,89.09
2023-08-14T08:34:54.884Z,86.79
2023-08-14T08:35:54.851Z,85.49
2023-08-14T08:36:54.830Z,85.29
2023-08-14T08:37:54.855Z,87.75
2023-08-14T08:38:54.957Z,86.05
2023-08-14T08:39:54.803Z,84.91
2023-08-14T08:40:54.787Z,83.47
2023-08-14T08:41:54.833Z,83.13
2023-08-14T08:42:54.832Z,82.09
2023-08-14T08:43:54.772Z,80.86
2023-08-14T08:44:54.776Z,76.77
2023-08-14T08:45:54.794Z,76.34
2023-08-14T08:46:54.762Z,76.60
2023-08-14T08:47:54.718Z,77.20
2023-08-14T08:48:54.712Z,76.70
2023-08-14T08:49:54.672Z,78.25
2023-08-14T08:50:54.677Z,77.36
2023-08-14T08:51:54.629Z,75.57
2023-08-14T08:52:54.686Z,74.47
2023-08-14T08:53:54.654Z,74.67
2023-08-14T08:54:54.631Z,74.47
2023-08-14T08:55:54.673Z,74.07
2023-08-14T08:56:54.582Z,73.68
2023-08-14T08:57:54.645Z,74.47
2023-08-14T08:58:54.702Z,75.07
2023-08-14T08:59:54.573Z,77.36
2023-08-14T09:00:54.575Z,76.06
2023-08-14T09:01:57.509Z,73.77
2023-08-14T09:02:54.718Z,75.37
2023-08-14T09:03:54.689Z,74.63
2023-08-14T09:04:54.744Z,72.64
2023-08-14T09:05:54.569Z,70.45
2023-08-14T09:06:54.557Z,71.65
2023-08-14T09:07:54.588Z,73.41
2023-08-14T09:08:54.612Z,73.11
2023-08-14T09:09:54.568Z,69.62
2023-08-14T09:10:54.622Z,69.36
2023-08-14T09:11:54.512Z,70.72
2023-08-14T09:12:54.447Z,68.93
2023-08-14T09:13:54.435Z,70.62
2023-08-14T09:14:54.476Z,69.53
2023-08-14T09:15:54.442Z,70.82
2023-08-14T09:16:54.596Z,69.03
2023-08-14T09:17:54.445Z,70.62
2023-08-14T09:18:54.378Z,71.81
2023-08-14T09:19:54.454Z,70.72
2023-08-14T09:20:54.382Z,70.82
2023-08-14T09:21:54.368Z,70.92
2023-08-14T09:22:54.454Z,70.62
2023-08-14T09:23:54.386Z,72.71
2023-08-14T09:24:54.373Z,68.83
2023-08-14T09:25:54.330Z,67.33
2023-08-14T09:26:54.326Z,67.83
2023-08-14T09:27:54.301Z,69.82
2023-08-14T09:28:54.264Z,69.26
2023-08-14T09:29:54.296Z,73.44
2023-08-14T09:30:54.349Z,71.45
2023-08-14T09:31:54.289Z,72.94
2023-08-14T09:32:54.335Z,72.25
2023-08-14T09:33:54.246Z,73.54
2023-08-14T09:34:54.334Z,67.37
2023-08-14T09:35:54.249Z,71.35
2023-08-14T09:36:54.208Z,67.57
2023-08-14T09:37:54.228Z,67.83
2023-08-14T09:38:54.199Z,67.04
2023-08-14T09:39:54.654Z,65.64
2023-08-14T09:40:54.265Z,68.40
2023-08-14T09:41:54.247Z,66.51
2023-08-14T09:42:54.165Z,66.31
2023-08-14T09:43:54.229Z,67.90
2023-08-14T09:44:54.228Z,66.81
2023-08-14T09:45:54.116Z,69.89
2023-08-14T09:46:54.265Z,67.40
2023-08-14T09:47:54.300Z,72.08
2023-08-14T09:48:54.161Z,68.60
2023-08-14T09:49:54.163Z,69.89
2023-08-14T09:50:54.096Z,69.89
2023-08-14T09:51:54.185Z,66.51
2023-08-14T09:52:54.110Z,67.70
2023-08-14T09:53:54.123Z,65.39
2023-08-14T09:54:54.323Z,65.58
2023-08-14T09:55:54.211Z,65.25
2023-08-14T09:56:54.355Z,63.96
2023-08-14T09:57:54.007Z,62.97
2023-08-14T09:58:54.008Z,63.17
2023-08-14T09:59:54.083Z,65.55
2023-08-14T10:00:54.652Z,69.43
2023-08-14T10:01:53.994Z,67.94
2023-08-14T10:02:54.239Z,65.35
2023-08-14T10:03:54.005Z,64.66
2023-08-14T10:04:54.010Z,65.32
2023-08-14T10:05:54.045Z,65.82
2023-08-14T10:06:53.932Z,64.83
2023-08-14T10:07:53.969Z,66.61
2023-08-14T10:08:53.955Z,65.62
2023-08-14T10:09:53.898Z,66.51
2023-08-14T10:11:05.793Z,69.09
2023-08-14T10:11:53.938Z,64.16
2023-08-14T10:12:53.908Z,67.34
2023-08-14T10:13:53.831Z,67.21
2023-08-14T10:14:53.834Z,66.51
2023-08-14T10:15:53.858Z,64.83
2023-08-14T10:16:53.965Z,64.73
2023-08-14T10:17:53.921Z,68.99
2023-08-14T10:18:53.811Z,67.64
2023-08-14T10:19:53.813Z,64.66
2023-08-14T10:20:53.799Z,66.55
2023-08-14T10:21:53.850Z,65.55
2023-08-14T10:22:53.805Z,67.83
2023-08-14T10:23:53.741Z,66.55
2023-08-14T10:24:53.880Z,64.16
2023-08-14T10:25:54.020Z,69.23
2023-08-14T10:26:53.792Z,62.30
2023-08-14T10:27:53.691Z,64.49
2023-08-14T10:28:53.706Z,66.05
2023-08-14T10:29:53.677Z,63.76
2023-08-14T10:30:53.679Z,62.05
2023-08-14T10:31:53.696Z,62.34
2023-08-14T10:32:53.710Z,63.31
2023-08-14T10:33:53.658Z,63.51
2023-08-14T10:34:53.609Z,61.10
2023-08-14T10:35:53.594Z,61.59
2023-08-14T10:36:53.685Z,62.18
2023-08-14T10:38:08.239Z,62.88
2023-08-14T10:39:53.644Z,63.28
2023-08-14T10:40:54.393Z,63.67
2023-08-14T10:41:53.570Z,62.29
2023-08-14T10:42:53.552Z,62.65
2023-08-14T10:43:53.635Z,60.96
2023-08-14T10:44:53.517Z,61.04
2023-08-14T10:45:53.599Z,60.24
2023-08-14T10:46:53.599Z,60.41
2023-08-14T10:47:53.556Z,61.40
2023-08-14T10:48:53.576Z,61.93
2023-08-14T10:49:53.565Z,62.52
2023-08-14T10:50:53.489Z,63.34
2023-08-14T10:51:53.457Z,62.95
2023-08-14T10:52:53.464Z,63.54
2023-08-14T10:53:53.524Z,59.08
2023-08-14T10:54:53.391Z,61.66
2023-08-14T10:55:53.550Z,60.47
2023-08-14T10:56:53.447Z,59.65
2023-08-14T10:57:53.393Z,58.95
2023-08-14T10:58:53.367Z,58.06
2023-08-14T10:59:53.341Z,59.05
2023-08-14T11:00:53.387Z,58.33
2023-08-14T11:01:53.456Z,57.54
2023-08-14T11:02:53.395Z,59.49
2023-08-14T11:03:53.306Z,58.60
2023-08-14T11:04:53.325Z,60.97
2023-08-14T11:05:53.341Z,57.88
2023-08-14T11:06:53.323Z,58.18
2023-08-14T11:07:53.256Z,57.85
2023-08-14T11:08:53.241Z,56.27
2023-08-14T11:09:53.261Z,56.14
2023-08-14T11:10:53.260Z,56.34
2023-08-14T11:11:53.229Z,57.03
2023-08-14T11:12:53.292Z,54.86
2023-08-14T11:13:53.228Z,56.84
2023-08-14T11:14:53.215Z,56.84
2023-08-14T11:15:53.314Z,57.03
2023-08-14T11:16:53.212Z,58.54
2023-08-14T11:17:53.255Z,58.25
2023-08-14T11:18:53.218Z,58.34
2023-08-14T11:19:53.157Z,56.86
2023-08-14T11:20:53.154Z,57.56
2023-08-14T11:21:53.138Z,57.56
2023-08-14T11:22:53.172Z,58.05
2023-08-14T11:23:53.139Z,58.45
2023-08-14T11:24:53.219Z,57.23
2023-08-14T11:25:53.148Z,58.22
2023-08-14T11:26:53.180Z,55.72
2023-08-14T11:27:53.103Z,56.31
2023-08-14T11:28:53.101Z,56.12
2023-08-14T11:29:54.759Z,53.85
2023-08-14T11:30:53.095Z,53.55
2023-08-14T11:31:53.172Z,53.55
2023-08-14T11:32:53.095Z,55.05
2023-08-14T11:33:53.006Z,54.17
2023-08-14T11:34:53.057Z,54.86
2023-08-14T11:35:52.972Z,55.75
2023-08-14T11:37:06.614Z,56.14
2023-08-14T11:37:52.972Z,56.61
2023-08-14T11:38:52.979Z,54.04
2023-08-14T11:39:53.213Z,55.62
2023-08-14T11:40:52.931Z,54.17
2023-08-14T11:41:52.936Z,56.14
2023-08-14T11:42:52.963Z,53.87
2023-08-14T11:43:52.929Z,56.24
2023-08-14T11:44:52.962Z,56.54
2023-08-14T11:45:52.915Z,57.10
2023-08-14T11:46:52.961Z,56.12
2023-08-14T11:47:53.021Z,56.61
2023-08-14T11:48:52.990Z,54.21
2023-08-14T11:49:52.937Z,54.71
2023-08-14T11:50:52.940Z,55.40
2023-08-14T11:51:52.856Z,54.97
2023-08-14T11:52:52.820Z,56.75
2023-08-14T11:53:52.846Z,56.36
2023-08-14T11:54:52.798Z,54.19
2023-08-14T11:55:52.817Z,54.38
2023-08-14T11:56:52.797Z,53.99
2023-08-14T11:57:52.764Z,52.80
2023-08-14T11:59:03.264Z,52.31
2023-08-14T11:59:52.782Z,52.80
2023-08-14T12:00:52.776Z,52.11
2023-08-14T12:01:52.760Z,52.51
2023-08-14T12:02:52.766Z,52.41
2023-08-14T12:03:52.801Z,53.89
2023-08-14T12:04:52.749Z,52.39
2023-08-14T12:05:52.701Z,52.58
2023-08-14T12:06:52.756Z,52.09
2023-08-14T12:07:52.700Z,52.68
2023-08-14T12:08:52.723Z,52.87
2023-08-14T12:09:52.669Z,53.57
2023-08-14T12:10:52.663Z,52.28
2023-08-14T12:11:52.618Z,52.68
2023-08-14T12:12:55.807Z,51.77
2023-08-14T12:13:52.637Z,53.54
2023-08-14T12:14:52.616Z,54.63
2023-08-14T12:15:53.448Z,52.85
2023-08-14T12:16:52.767Z,51.87
2023-08-14T12:17:52.882Z,51.28
2023-08-14T12:18:52.652Z,51.97
2023-08-14T12:19:52.568Z,53.25
2023-08-14T12:20:52.540Z,52.46
2023-08-14T12:21:52.570Z,53.34
2023-08-14T12:22:59.950Z,53.64
2023-08-14T12:23:52.649Z,53.74
2023-08-14T12:24:52.579Z,52.83
2023-08-14T12:25:52.525Z,51.74
2023-08-14T12:26:52.478Z,52.23
2023-08-14T12:27:52.502Z,51.54
2023-08-14T12:28:52.508Z,52.90
2023-08-14T12:29:52.558Z,54.08
2023-08-14T12:30:52.494Z,51.92
2023-08-14T12:31:52.492Z,51.81
2023-08-14T12:32:52.476Z,52.90
2023-08-14T12:33:59.260Z,53.09
2023-08-14T12:34:52.665Z,53.00
2023-08-14T12:35:52.443Z,53.09
2023-08-14T12:36:52.425Z,52.80
2023-08-14T12:37:52.380Z,52.01
2023-08-14T12:38:52.471Z,52.61
2023-08-14T12:39:52.538Z,51.12
2023-08-14T12:40:52.366Z,51.42
2023-08-14T12:41:52.366Z,51.12
2023-08-14T12:42:52.318Z,51.23
2023-08-14T12:43:52.417Z,53.30
2023-08-14T12:44:52.459Z,53.30
2023-08-14T12:45:52.313Z,52.23
2023-08-14T12:46:54.773Z,52.14
2023-08-14T12:47:52.336Z,51.54
2023-08-14T12:48:52.278Z,51.15
2023-08-14T12:49:52.276Z,51.64
2023-08-14T12:50:52.238Z,52.04
2023-08-14T12:51:52.239Z,54.11
2023-08-14T12:52:52.235Z,56.77
2023-08-14T12:53:52.260Z,51.84
2023-08-14T12:55:04.572Z,49.87
2023-08-14T12:55:55.012Z,50.83